sensor_id;sensor_type;location;lat;lon;timestamp;P1;durP1;ratioP1;P2;durP2;ratioP2
12367;SDS011;6248;49.812;6.620;2023-01-10T00:01:27;3.40;;;1.20;;
12367;SDS011;6248;49.812;6.620;2023-01-10T00:03:54;1.17;;;0.90;;
12367;SDS011;6248;49.812;6.620;2023-01-10T00:06:22;2.13;;;1.07;;
12367;SDS011;6248;49.812;6.620;2023-01-10T00:08:49;2.60;;;0.77;;
12367;SDS011;6248;49.812;6.620;2023-01-10T00:11:16;2.43;;;1.00;;
12367;SDS011;6248;49.812;6.620;2023-01-10T00:14:02;5.20;;;0.97;;
12367;SDS011;6248;49.812;6.620;2023-01-10T00:16:29;1.70;;;0.93;;
12367;SDS011;6248;49.812;6.620;2023-01-10T00:18:56;1.43;;;0.90;;
12367;SDS011;6248;49.812;6.620;2023-01-10T00:21:23;1.17;;;0.70;;
12367;SDS011;6248;49.812;6.620;2023-01-10T00:23:52;1.10;;;1.00;;
12367;SDS011;6248;49.812;6.620;2023-01-10T00:26:19;1.23;;;0.80;;
12367;SDS011;6248;49.812;6.620;2023-01-10T00:28:46;2.50;;;1.10;;
12367;SDS011;6248;49.812;6.620;2023-01-10T00:31:15;1.07;;;0.97;;
12367;SDS011;6248;49.812;6.620;2023-01-10T00:33:42;0.97;;;0.90;;
12367;SDS011;6248;49.812;6.620;2023-01-10T00:36:10;1.67;;;1.00;;
12367;SDS011;6248;49.812;6.620;2023-01-10T00:38:37;1.10;;;0.90;;
12367;SDS011;6248;49.812;6.620;2023-01-10T00:41:04;2.13;;;1.00;;
12367;SDS011;6248;49.812;6.620;2023-01-10T00:43:52;1.40;;;1.00;;
12367;SDS011;6248;49.812;6.620;2023-01-10T00:46:22;2.03;;;1.10;;
12367;SDS011;6248;49.812;6.620;2023-01-10T00:48:49;3.03;;;1.30;;
12367;SDS011;6248;49.812;6.620;2023-01-10T00:51:17;2.03;;;1.10;;
12367;SDS011;6248;49.812;6.620;2023-01-10T00:53:45;1.13;;;0.97;;
12367;SDS011;6248;49.812;6.620;2023-01-10T00:56:12;3.67;;;1.30;;
12367;SDS011;6248;49.812;6.620;2023-01-10T00:58:39;2.60;;;1.30;;
12367;SDS011;6248;49.812;6.620;2023-01-10T01:01:07;2.87;;;1.10;;
12367;SDS011;6248;49.812;6.620;2023-01-10T01:03:35;2.03;;;1.10;;
12367;SDS011;6248;49.812;6.620;2023-01-10T01:06:02;4.80;;;1.63;;
12367;SDS011;6248;49.812;6.620;2023-01-10T01:08:30;3.27;;;1.47;;
12367;SDS011;6248;49.812;6.620;2023-01-10T01:10:57;1.73;;;1.20;;
12367;SDS011;6248;49.812;6.620;2023-01-10T01:13:24;2.60;;;1.27;;
12367;SDS011;6248;49.812;6.620;2023-01-10T01:15:51;3.80;;;1.60;;
12367;SDS011;6248;49.812;6.620;2023-01-10T01:18:19;6.53;;;1.83;;
12367;SDS011;6248;49.812;6.620;2023-01-10T01:20:51;2.57;;;1.40;;
12367;SDS011;6248;49.812;6.620;2023-01-10T01:23:18;2.50;;;1.60;;
12367;SDS011;6248;49.812;6.620;2023-01-10T01:25:48;2.70;;;1.53;;
12367;SDS011;6248;49.812;6.620;2023-01-10T01:28:15;6.67;;;1.70;;
12367;SDS011;6248;49.812;6.620;2023-01-10T01:30:42;5.10;;;1.60;;
12367;SDS011;6248;49.812;6.620;2023-01-10T01:33:10;8.60;;;2.20;;
12367;SDS011;6248;49.812;6.620;2023-01-10T01:35:40;8.40;;;2.27;;
12367;SDS011;6248;49.812;6.620;2023-01-10T01:38:08;9.80;;;2.13;;
12367;SDS011;6248;49.812;6.620;2023-01-10T01:40:36;7.93;;;2.47;;
12367;SDS011;6248;49.812;6.620;2023-01-10T01:43:03;6.57;;;2.17;;
12367;SDS011;6248;49.812;6.620;2023-01-10T01:50:50;4.63;;;2.00;;
12367;SDS011;6248;49.812;6.620;2023-01-10T01:53:21;10.83;;;2.43;;
12367;SDS011;6248;49.812;6.620;2023-01-10T01:55:51;10.30;;;2.10;;
12367;SDS011;6248;49.812;6.620;2023-01-10T01:58:22;6.23;;;2.00;;
12367;SDS011;6248;49.812;6.620;2023-01-10T02:00:50;7.73;;;2.23;;
12367;SDS011;6248;49.812;6.620;2023-01-10T02:03:17;6.13;;;2.20;;
12367;SDS011;6248;49.812;6.620;2023-01-10T02:05:44;7.90;;;2.30;;
12367;SDS011;6248;49.812;6.620;2023-01-10T02:08:12;7.77;;;2.40;;
12367;SDS011;6248;49.812;6.620;2023-01-10T02:10:43;8.43;;;2.53;;
12367;SDS011;6248;49.812;6.620;2023-01-10T02:13:13;6.60;;;2.50;;
12367;SDS011;6248;49.812;6.620;2023-01-10T02:15:41;8.87;;;2.43;;
12367;SDS011;6248;49.812;6.620;2023-01-10T02:18:08;9.33;;;2.70;;
12367;SDS011;6248;49.812;6.620;2023-01-10T02:20:37;9.03;;;2.70;;
12367;SDS011;6248;49.812;6.620;2023-01-10T02:25:55;10.60;;;2.53;;
12367;SDS011;6248;49.812;6.620;2023-01-10T02:28:41;6.43;;;2.13;;
12367;SDS011;6248;49.812;6.620;2023-01-10T02:31:24;9.77;;;2.80;;
12367;SDS011;6248;49.812;6.620;2023-01-10T02:33:59;12.13;;;2.40;;
12367;SDS011;6248;49.812;6.620;2023-01-10T02:36:33;8.60;;;2.43;;
12367;SDS011;6248;49.812;6.620;2023-01-10T02:39:03;7.27;;;2.60;;
12367;SDS011;6248;49.812;6.620;2023-01-10T02:41:34;10.37;;;2.50;;
12367;SDS011;6248;49.812;6.620;2023-01-10T02:44:06;9.87;;;2.70;;
12367;SDS011;6248;49.812;6.620;2023-01-10T02:46:33;12.90;;;3.00;;
12367;SDS011;6248;49.812;6.620;2023-01-10T02:49:03;13.80;;;3.00;;
12367;SDS011;6248;49.812;6.620;2023-01-10T02:51:30;9.77;;;2.53;;
12367;SDS011;6248;49.812;6.620;2023-01-10T02:53:58;8.43;;;2.20;;
12367;SDS011;6248;49.812;6.620;2023-01-10T02:56:33;8.27;;;2.40;;
12367;SDS011;6248;49.812;6.620;2023-01-10T02:59:09;11.27;;;3.07;;
12367;SDS011;6248;49.812;6.620;2023-01-10T03:01:41;9.03;;;2.83;;
12367;SDS011;6248;49.812;6.620;2023-01-10T03:04:14;10.20;;;2.60;;
12367;SDS011;6248;49.812;6.620;2023-01-10T03:06:45;12.47;;;2.50;;
12367;SDS011;6248;49.812;6.620;2023-01-10T03:09:15;9.07;;;2.40;;
12367;SDS011;6248;49.812;6.620;2023-01-10T03:11:45;8.97;;;2.60;;
12367;SDS011;6248;49.812;6.620;2023-01-10T03:14:15;16.90;;;3.20;;
12367;SDS011;6248;49.812;6.620;2023-01-10T03:16:44;8.73;;;2.30;;
12367;SDS011;6248;49.812;6.620;2023-01-10T03:19:15;10.77;;;2.40;;
12367;SDS011;6248;49.812;6.620;2023-01-10T03:21:43;10.10;;;2.40;;
12367;SDS011;6248;49.812;6.620;2023-01-10T03:24:12;11.33;;;2.80;;
12367;SDS011;6248;49.812;6.620;2023-01-10T03:26:43;10.37;;;2.97;;
12367;SDS011;6248;49.812;6.620;2023-01-10T03:29:11;9.87;;;2.33;;
12367;SDS011;6248;49.812;6.620;2023-01-10T03:31:43;10.60;;;2.70;;
12367;SDS011;6248;49.812;6.620;2023-01-10T03:34:11;12.23;;;2.90;;
12367;SDS011;6248;49.812;6.620;2023-01-10T03:36:42;10.73;;;2.57;;
12367;SDS011;6248;49.812;6.620;2023-01-10T03:39:14;14.57;;;2.70;;
12367;SDS011;6248;49.812;6.620;2023-01-10T03:41:46;14.07;;;3.00;;
12367;SDS011;6248;49.812;6.620;2023-01-10T03:44:15;11.50;;;3.50;;
12367;SDS011;6248;49.812;6.620;2023-01-10T03:47:03;12.17;;;2.73;;
12367;SDS011;6248;49.812;6.620;2023-01-10T03:49:31;16.13;;;3.23;;
12367;SDS011;6248;49.812;6.620;2023-01-10T03:52:00;15.90;;;2.97;;
12367;SDS011;6248;49.812;6.620;2023-01-10T03:54:28;13.53;;;2.73;;
12367;SDS011;6248;49.812;6.620;2023-01-10T03:56:56;12.47;;;3.07;;
12367;SDS011;6248;49.812;6.620;2023-01-10T03:59:23;13.70;;;3.00;;
12367;SDS011;6248;49.812;6.620;2023-01-10T04:01:51;15.53;;;3.10;;
12367;SDS011;6248;49.812;6.620;2023-01-10T04:04:18;15.53;;;3.10;;
12367;SDS011;6248;49.812;6.620;2023-01-10T04:06:45;14.67;;;3.40;;
12367;SDS011;6248;49.812;6.620;2023-01-10T04:09:14;17.10;;;3.80;;
12367;SDS011;6248;49.812;6.620;2023-01-10T04:11:41;12.10;;;3.10;;
12367;SDS011;6248;49.812;6.620;2023-01-10T04:14:08;14.23;;;3.43;;
12367;SDS011;6248;49.812;6.620;2023-01-10T04:16:35;10.33;;;2.60;;
12367;SDS011;6248;49.812;6.620;2023-01-10T04:19:02;11.93;;;3.07;;
12367;SDS011;6248;49.812;6.620;2023-01-10T04:21:29;10.73;;;3.23;;
12367;SDS011;6248;49.812;6.620;2023-01-10T04:23:56;16.60;;;3.00;;
12367;SDS011;6248;49.812;6.620;2023-01-10T04:26:25;12.77;;;2.77;;
12367;SDS011;6248;49.812;6.620;2023-01-10T04:28:52;15.43;;;3.37;;
12367;SDS011;6248;49.812;6.620;2023-01-10T04:31:19;18.27;;;3.00;;
12367;SDS011;6248;49.812;6.620;2023-01-10T04:33:47;15.60;;;3.30;;
12367;SDS011;6248;49.812;6.620;2023-01-10T04:36:14;13.47;;;3.20;;
12367;SDS011;6248;49.812;6.620;2023-01-10T04:38:41;13.80;;;3.03;;
12367;SDS011;6248;49.812;6.620;2023-01-10T04:41:08;10.37;;;2.87;;
12367;SDS011;6248;49.812;6.620;2023-01-10T04:43:37;14.63;;;2.97;;
12367;SDS011;6248;49.812;6.620;2023-01-10T04:46:04;12.57;;;3.20;;
12367;SDS011;6248;49.812;6.620;2023-01-10T04:48:31;13.07;;;3.40;;
12367;SDS011;6248;49.812;6.620;2023-01-10T04:50:58;17.80;;;4.03;;
12367;SDS011;6248;49.812;6.620;2023-01-10T04:53:25;14.60;;;3.30;;
12367;SDS011;6248;49.812;6.620;2023-01-10T04:55:53;13.83;;;3.03;;
12367;SDS011;6248;49.812;6.620;2023-01-10T04:58:20;13.07;;;2.83;;
12367;SDS011;6248;49.812;6.620;2023-01-10T05:00:48;11.60;;;3.07;;
12367;SDS011;6248;49.812;6.620;2023-01-10T05:03:18;10.07;;;2.70;;
12367;SDS011;6248;49.812;6.620;2023-01-10T05:05:46;12.67;;;2.80;;
12367;SDS011;6248;49.812;6.620;2023-01-10T05:08:13;15.40;;;3.00;;
12367;SDS011;6248;49.812;6.620;2023-01-10T05:10:40;14.00;;;2.97;;
12367;SDS011;6248;49.812;6.620;2023-01-10T05:13:07;12.40;;;2.80;;
12367;SDS011;6248;49.812;6.620;2023-01-10T05:15:34;12.53;;;2.50;;
12367;SDS011;6248;49.812;6.620;2023-01-10T05:18:03;13.57;;;2.93;;
12367;SDS011;6248;49.812;6.620;2023-01-10T05:20:30;12.50;;;3.17;;
12367;SDS011;6248;49.812;6.620;2023-01-10T05:22:57;14.97;;;2.87;;
12367;SDS011;6248;49.812;6.620;2023-01-10T05:25:24;14.00;;;3.60;;
12367;SDS011;6248;49.812;6.620;2023-01-10T05:27:51;10.70;;;3.57;;
12367;SDS011;6248;49.812;6.620;2023-01-10T05:30:19;14.77;;;3.30;;
12367;SDS011;6248;49.812;6.620;2023-01-10T05:32:46;14.03;;;3.37;;
12367;SDS011;6248;49.812;6.620;2023-01-10T05:35:15;14.23;;;3.67;;
12367;SDS011;6248;49.812;6.620;2023-01-10T05:37:42;14.33;;;3.70;;
12367;SDS011;6248;49.812;6.620;2023-01-10T05:40:10;18.10;;;3.70;;
12367;SDS011;6248;49.812;6.620;2023-01-10T05:42:37;11.63;;;3.17;;
12367;SDS011;6248;49.812;6.620;2023-01-10T05:45:04;10.87;;;2.70;;
12367;SDS011;6248;49.812;6.620;2023-01-10T05:47:32;13.60;;;3.33;;
12367;SDS011;6248;49.812;6.620;2023-01-10T05:49:59;15.97;;;3.60;;
12367;SDS011;6248;49.812;6.620;2023-01-10T05:52:27;13.30;;;3.70;;
12367;SDS011;6248;49.812;6.620;2023-01-10T05:54:54;15.13;;;3.50;;
12367;SDS011;6248;49.812;6.620;2023-01-10T05:57:21;14.33;;;3.10;;
12367;SDS011;6248;49.812;6.620;2023-01-10T05:59:49;14.90;;;3.20;;
12367;SDS011;6248;49.812;6.620;2023-01-10T06:02:16;10.47;;;2.90;;
12367;SDS011;6248;49.812;6.620;2023-01-10T06:04:43;14.23;;;3.00;;
12367;SDS011;6248;49.812;6.620;2023-01-10T06:07:10;13.40;;;3.00;;
12367;SDS011;6248;49.812;6.620;2023-01-10T06:09:39;16.63;;;2.70;;
12367;SDS011;6248;49.812;6.620;2023-01-10T06:12:06;11.87;;;3.07;;
12367;SDS011;6248;49.812;6.620;2023-01-10T06:14:34;14.63;;;2.60;;
12367;SDS011;6248;49.812;6.620;2023-01-10T06:17:01;12.27;;;2.60;;
12367;SDS011;6248;49.812;6.620;2023-01-10T06:19:32;13.60;;;3.00;;
12367;SDS011;6248;49.812;6.620;2023-01-10T06:21:59;10.83;;;2.90;;
12367;SDS011;6248;49.812;6.620;2023-01-10T06:24:26;12.07;;;2.87;;
12367;SDS011;6248;49.812;6.620;2023-01-10T06:26:55;14.20;;;3.00;;
12367;SDS011;6248;49.812;6.620;2023-01-10T06:29:22;13.43;;;2.70;;
12367;SDS011;6248;49.812;6.620;2023-01-10T06:31:49;11.60;;;2.90;;
12367;SDS011;6248;49.812;6.620;2023-01-10T06:34:16;13.40;;;2.80;;
12367;SDS011;6248;49.812;6.620;2023-01-10T06:36:43;18.00;;;3.40;;
12367;SDS011;6248;49.812;6.620;2023-01-10T06:39:10;10.53;;;2.83;;
12367;SDS011;6248;49.812;6.620;2023-01-10T06:41:37;14.63;;;3.60;;
12367;SDS011;6248;49.812;6.620;2023-01-10T06:44:06;13.40;;;2.67;;
12367;SDS011;6248;49.812;6.620;2023-01-10T06:46:33;14.80;;;2.97;;
12367;SDS011;6248;49.812;6.620;2023-01-10T06:49:00;10.43;;;3.43;;
12367;SDS011;6248;49.812;6.620;2023-01-10T06:51:28;13.97;;;3.20;;
12367;SDS011;6248;49.812;6.620;2023-01-10T06:53:55;15.30;;;3.67;;
12367;SDS011;6248;49.812;6.620;2023-01-10T06:56:22;12.47;;;3.17;;
12367;SDS011;6248;49.812;6.620;2023-01-10T06:58:49;18.87;;;3.90;;
12367;SDS011;6248;49.812;6.620;2023-01-10T07:01:18;14.83;;;3.50;;
12367;SDS011;6248;49.812;6.620;2023-01-10T07:03:46;11.33;;;3.50;;
12367;SDS011;6248;49.812;6.620;2023-01-10T07:06:14;11.30;;;3.13;;
12367;SDS011;6248;49.812;6.620;2023-01-10T07:08:41;14.17;;;3.20;;
12367;SDS011;6248;49.812;6.620;2023-01-10T07:11:09;16.03;;;3.33;;
12367;SDS011;6248;49.812;6.620;2023-01-10T07:13:37;10.50;;;3.30;;
12367;SDS011;6248;49.812;6.620;2023-01-10T07:16:05;17.53;;;3.60;;
12367;SDS011;6248;49.812;6.620;2023-01-10T07:18:34;12.43;;;3.17;;
12367;SDS011;6248;49.812;6.620;2023-01-10T07:21:01;15.37;;;3.93;;
12367;SDS011;6248;49.812;6.620;2023-01-10T07:23:29;12.40;;;3.40;;
12367;SDS011;6248;49.812;6.620;2023-01-10T07:25:56;15.47;;;4.07;;
12367;SDS011;6248;49.812;6.620;2023-01-10T07:28:23;19.47;;;3.90;;
12367;SDS011;6248;49.812;6.620;2023-01-10T07:30:50;15.97;;;4.30;;
12367;SDS011;6248;49.812;6.620;2023-01-10T07:33:17;14.20;;;3.80;;
12367;SDS011;6248;49.812;6.620;2023-01-10T07:35:46;19.20;;;3.80;;
12367;SDS011;6248;49.812;6.620;2023-01-10T07:38:13;15.03;;;3.57;;
12367;SDS011;6248;49.812;6.620;2023-01-10T07:40:40;15.00;;;4.03;;
12367;SDS011;6248;49.812;6.620;2023-01-10T07:43:08;14.40;;;4.00;;
12367;SDS011;6248;49.812;6.620;2023-01-10T07:45:35;16.23;;;3.83;;
12367;SDS011;6248;49.812;6.620;2023-01-10T07:48:03;14.77;;;3.80;;
12367;SDS011;6248;49.812;6.620;2023-01-10T07:50:32;17.83;;;4.57;;
12367;SDS011;6248;49.812;6.620;2023-01-10T07:53:01;17.00;;;4.17;;
12367;SDS011;6248;49.812;6.620;2023-01-10T07:55:29;15.77;;;4.13;;
12367;SDS011;6248;49.812;6.620;2023-01-10T07:57:58;12.50;;;3.90;;
12367;SDS011;6248;49.812;6.620;2023-01-10T08:00:26;17.83;;;4.43;;
12367;SDS011;6248;49.812;6.620;2023-01-10T08:02:53;12.17;;;4.30;;
12367;SDS011;6248;49.812;6.620;2023-01-10T08:05:20;15.93;;;5.27;;
12367;SDS011;6248;49.812;6.620;2023-01-10T08:07:47;14.13;;;4.20;;
12367;SDS011;6248;49.812;6.620;2023-01-10T08:10:16;11.77;;;3.90;;
12367;SDS011;6248;49.812;6.620;2023-01-10T08:12:43;13.47;;;4.00;;
12367;SDS011;6248;49.812;6.620;2023-01-10T08:15:12;17.53;;;4.80;;
12367;SDS011;6248;49.812;6.620;2023-01-10T08:17:39;14.07;;;4.60;;
12367;SDS011;6248;49.812;6.620;2023-01-10T08:20:07;12.90;;;4.60;;
12367;SDS011;6248;49.812;6.620;2023-01-10T08:22:34;18.30;;;4.93;;
12367;SDS011;6248;49.812;6.620;2023-01-10T08:25:02;17.90;;;5.30;;
12367;SDS011;6248;49.812;6.620;2023-01-10T08:27:30;16.93;;;4.53;;
12367;SDS011;6248;49.812;6.620;2023-01-10T08:29:57;21.37;;;4.73;;
12367;SDS011;6248;49.812;6.620;2023-01-10T08:32:25;17.40;;;4.60;;
12367;SDS011;6248;49.812;6.620;2023-01-10T08:34:52;16.83;;;4.90;;
12367;SDS011;6248;49.812;6.620;2023-01-10T08:37:19;13.57;;;4.37;;
12367;SDS011;6248;49.812;6.620;2023-01-10T08:39:46;18.97;;;5.20;;
12367;SDS011;6248;49.812;6.620;2023-01-10T08:42:13;15.90;;;4.30;;
12367;SDS011;6248;49.812;6.620;2023-01-10T08:44:44;17.70;;;5.00;;
12367;SDS011;6248;49.812;6.620;2023-01-10T08:47:11;12.87;;;4.80;;
12367;SDS011;6248;49.812;6.620;2023-01-10T08:49:39;18.60;;;4.90;;
12367;SDS011;6248;49.812;6.620;2023-01-10T08:52:06;20.33;;;4.90;;
12367;SDS011;6248;49.812;6.620;2023-01-10T08:54:33;17.83;;;5.07;;
12367;SDS011;6248;49.812;6.620;2023-01-10T08:57:00;16.67;;;5.50;;
12367;SDS011;6248;49.812;6.620;2023-01-10T08:59:28;18.57;;;6.00;;
12367;SDS011;6248;49.812;6.620;2023-01-10T09:01:56;16.97;;;5.83;;
12367;SDS011;6248;49.812;6.620;2023-01-10T09:04:24;19.93;;;5.63;;
12367;SDS011;6248;49.812;6.620;2023-01-10T09:06:52;17.63;;;5.97;;
12367;SDS011;6248;49.812;6.620;2023-01-10T09:09:20;25.27;;;5.97;;
12367;SDS011;6248;49.812;6.620;2023-01-10T09:11:47;21.93;;;5.87;;
12367;SDS011;6248;49.812;6.620;2023-01-10T09:14:14;22.73;;;5.53;;
12367;SDS011;6248;49.812;6.620;2023-01-10T09:16:41;17.50;;;5.33;;
12367;SDS011;6248;49.812;6.620;2023-01-10T09:19:10;14.97;;;5.17;;
12367;SDS011;6248;49.812;6.620;2023-01-10T09:21:37;15.67;;;4.70;;
12367;SDS011;6248;49.812;6.620;2023-01-10T09:24:04;19.60;;;5.30;;
12367;SDS011;6248;49.812;6.620;2023-01-10T09:26:32;16.23;;;5.17;;
12367;SDS011;6248;49.812;6.620;2023-01-10T09:28:59;22.50;;;5.97;;
12367;SDS011;6248;49.812;6.620;2023-01-10T09:31:26;20.50;;;4.83;;
12367;SDS011;6248;49.812;6.620;2023-01-10T09:33:53;12.63;;;4.90;;
12367;SDS011;6248;49.812;6.620;2023-01-10T09:36:22;20.60;;;4.70;;
12367;SDS011;6248;49.812;6.620;2023-01-10T09:38:49;15.13;;;4.70;;
12367;SDS011;6248;49.812;6.620;2023-01-10T09:41:18;16.20;;;5.00;;
12367;SDS011;6248;49.812;6.620;2023-01-10T09:43:53;16.23;;;4.57;;
12367;SDS011;6248;49.812;6.620;2023-01-10T09:46:28;16.80;;;4.90;;
12367;SDS011;6248;49.812;6.620;2023-01-10T09:48:59;17.77;;;4.17;;
12367;SDS011;6248;49.812;6.620;2023-01-10T09:51:33;17.40;;;4.57;;
12367;SDS011;6248;49.812;6.620;2023-01-10T09:54:02;13.23;;;4.27;;
12367;SDS011;6248;49.812;6.620;2023-01-10T09:56:30;20.30;;;4.90;;
12367;SDS011;6248;49.812;6.620;2023-01-10T09:58:58;18.93;;;4.87;;
12367;SDS011;6248;49.812;6.620;2023-01-10T10:01:28;17.00;;;4.70;;
12367;SDS011;6248;49.812;6.620;2023-01-10T10:03:57;15.23;;;3.70;;
12367;SDS011;6248;49.812;6.620;2023-01-10T10:06:26;20.17;;;4.40;;
12367;SDS011;6248;49.812;6.620;2023-01-10T10:08:54;13.93;;;4.30;;
12367;SDS011;6248;49.812;6.620;2023-01-10T10:14:18;14.47;;;4.83;;
12367;SDS011;6248;49.812;6.620;2023-01-10T10:16:51;21.23;;;4.17;;
12367;SDS011;6248;49.812;6.620;2023-01-10T10:19:22;19.40;;;4.57;;
12367;SDS011;6248;49.812;6.620;2023-01-10T10:21:56;19.13;;;4.60;;
12367;SDS011;6248;49.812;6.620;2023-01-10T10:24:36;10.77;;;3.83;;
12367;SDS011;6248;49.812;6.620;2023-01-10T10:27:10;19.10;;;4.10;;
12367;SDS011;6248;49.812;6.620;2023-01-10T10:29:50;10.80;;;3.43;;
12367;SDS011;6248;49.812;6.620;2023-01-10T10:32:23;12.57;;;3.57;;
12367;SDS011;6248;49.812;6.620;2023-01-10T10:34:52;13.30;;;3.57;;
12367;SDS011;6248;49.812;6.620;2023-01-10T10:37:22;13.77;;;3.97;;
12367;SDS011;6248;49.812;6.620;2023-01-10T10:39:58;16.23;;;4.07;;
12367;SDS011;6248;49.812;6.620;2023-01-10T10:42:27;12.53;;;3.27;;
12367;SDS011;6248;49.812;6.620;2023-01-10T10:44:56;16.07;;;3.73;;
12367;SDS011;6248;49.812;6.620;2023-01-10T10:47:26;17.67;;;3.57;;
12367;SDS011;6248;49.812;6.620;2023-01-10T10:49:54;13.80;;;3.60;;
12367;SDS011;6248;49.812;6.620;2023-01-10T10:52:25;13.63;;;3.50;;
12367;SDS011;6248;49.812;6.620;2023-01-10T10:54:52;16.17;;;3.50;;
12367;SDS011;6248;49.812;6.620;2023-01-10T10:57:23;11.83;;;3.17;;
12367;SDS011;6248;49.812;6.620;2023-01-10T10:59:51;14.87;;;3.23;;
12367;SDS011;6248;49.812;6.620;2023-01-10T11:02:20;13.23;;;3.60;;
12367;SDS011;6248;49.812;6.620;2023-01-10T11:04:47;13.30;;;3.90;;
12367;SDS011;6248;49.812;6.620;2023-01-10T11:07:15;14.87;;;3.30;;
12367;SDS011;6248;49.812;6.620;2023-01-10T11:09:43;16.03;;;3.93;;
12367;SDS011;6248;49.812;6.620;2023-01-10T11:12:11;15.20;;;3.97;;
12367;SDS011;6248;49.812;6.620;2023-01-10T11:14:41;19.73;;;4.83;;
12367;SDS011;6248;49.812;6.620;2023-01-10T11:17:20;13.73;;;4.40;;
12367;SDS011;6248;49.812;6.620;2023-01-10T11:19:54;22.03;;;4.53;;
12367;SDS011;6248;49.812;6.620;2023-01-10T11:22:21;14.50;;;3.40;;
12367;SDS011;6248;49.812;6.620;2023-01-10T11:24:50;11.47;;;3.53;;
12367;SDS011;6248;49.812;6.620;2023-01-10T11:27:21;14.27;;;3.30;;
12367;SDS011;6248;49.812;6.620;2023-01-10T11:29:50;21.80;;;7.17;;
12367;SDS011;6248;49.812;6.620;2023-01-10T11:32:19;18.40;;;5.43;;
12367;SDS011;6248;49.812;6.620;2023-01-10T11:34:49;18.23;;;4.57;;
12367;SDS011;6248;49.812;6.620;2023-01-10T11:37:19;16.93;;;4.73;;
12367;SDS011;6248;49.812;6.620;2023-01-10T11:39:48;12.73;;;3.60;;
12367;SDS011;6248;49.812;6.620;2023-01-10T11:42:24;14.87;;;5.00;;
12367;SDS011;6248;49.812;6.620;2023-01-10T11:44:55;16.50;;;4.10;;
12367;SDS011;6248;49.812;6.620;2023-01-10T11:47:22;15.53;;;4.37;;
12367;SDS011;6248;49.812;6.620;2023-01-10T11:49:49;18.10;;;5.30;;
12367;SDS011;6248;49.812;6.620;2023-01-10T11:52:18;17.97;;;4.57;;
12367;SDS011;6248;49.812;6.620;2023-01-10T11:54:46;15.33;;;4.47;;
12367;SDS011;6248;49.812;6.620;2023-01-10T11:57:14;13.97;;;3.47;;
12367;SDS011;6248;49.812;6.620;2023-01-10T11:59:48;19.57;;;3.63;;
12367;SDS011;6248;49.812;6.620;2023-01-10T12:02:19;15.30;;;3.77;;
12367;SDS011;6248;49.812;6.620;2023-01-10T12:04:47;19.43;;;4.13;;
12367;SDS011;6248;49.812;6.620;2023-01-10T12:07:16;13.93;;;3.90;;
12367;SDS011;6248;49.812;6.620;2023-01-10T12:09:43;13.80;;;3.53;;
12367;SDS011;6248;49.812;6.620;2023-01-10T12:12:20;17.07;;;3.90;;
12367;SDS011;6248;49.812;6.620;2023-01-10T12:14:48;17.60;;;4.50;;
12367;SDS011;6248;49.812;6.620;2023-01-10T12:17:20;17.30;;;4.03;;
12367;SDS011;6248;49.812;6.620;2023-01-10T12:19:47;15.73;;;4.20;;
12367;SDS011;6248;49.812;6.620;2023-01-10T12:22:17;15.53;;;3.37;;
12367;SDS011;6248;49.812;6.620;2023-01-10T12:24:46;12.37;;;4.87;;
12367;SDS011;6248;49.812;6.620;2023-01-10T12:27:14;14.80;;;3.67;;
12367;SDS011;6248;49.812;6.620;2023-01-10T12:29:44;23.70;;;5.07;;
12367;SDS011;6248;49.812;6.620;2023-01-10T12:32:13;15.40;;;4.20;;
12367;SDS011;6248;49.812;6.620;2023-01-10T12:34:44;16.03;;;3.87;;
12367;SDS011;6248;49.812;6.620;2023-01-10T12:37:15;16.40;;;3.90;;
12367;SDS011;6248;49.812;6.620;2023-01-10T12:39:45;12.20;;;4.50;;
12367;SDS011;6248;49.812;6.620;2023-01-10T12:42:17;13.03;;;3.53;;
12367;SDS011;6248;49.812;6.620;2023-01-10T12:45:04;19.00;;;3.67;;
12367;SDS011;6248;49.812;6.620;2023-01-10T12:47:33;14.33;;;3.70;;
12367;SDS011;6248;49.812;6.620;2023-01-10T12:50:04;17.60;;;4.10;;
12367;SDS011;6248;49.812;6.620;2023-01-10T12:52:33;16.37;;;3.80;;
12367;SDS011;6248;49.812;6.620;2023-01-10T12:55:10;15.20;;;4.20;;
12367;SDS011;6248;49.812;6.620;2023-01-10T12:57:38;22.27;;;3.93;;
12367;SDS011;6248;49.812;6.620;2023-01-10T13:00:06;13.87;;;3.90;;
12367;SDS011;6248;49.812;6.620;2023-01-10T13:02:37;13.33;;;3.63;;
12367;SDS011;6248;49.812;6.620;2023-01-10T13:05:07;12.40;;;3.63;;
12367;SDS011;6248;49.812;6.620;2023-01-10T13:07:40;16.20;;;3.73;;
12367;SDS011;6248;49.812;6.620;2023-01-10T13:10:09;17.93;;;3.60;;
12367;SDS011;6248;49.812;6.620;2023-01-10T13:12:41;15.33;;;3.77;;
12367;SDS011;6248;49.812;6.620;2023-01-10T13:15:11;21.17;;;3.50;;
12367;SDS011;6248;49.812;6.620;2023-01-10T13:17:42;14.93;;;3.53;;
12367;SDS011;6248;49.812;6.620;2023-01-10T13:20:23;19.93;;;3.67;;
12367;SDS011;6248;49.812;6.620;2023-01-10T13:22:51;12.77;;;3.50;;
12367;SDS011;6248;49.812;6.620;2023-01-10T13:25:21;18.37;;;3.63;;
12367;SDS011;6248;49.812;6.620;2023-01-10T13:27:53;16.17;;;4.07;;
12367;SDS011;6248;49.812;6.620;2023-01-10T13:30:24;15.67;;;3.77;;
12367;SDS011;6248;49.812;6.620;2023-01-10T13:32:54;17.03;;;3.57;;
12367;SDS011;6248;49.812;6.620;2023-01-10T13:35:24;13.30;;;3.53;;
12367;SDS011;6248;49.812;6.620;2023-01-10T13:37:52;18.17;;;3.60;;
12367;SDS011;6248;49.812;6.620;2023-01-10T13:40:22;16.00;;;3.57;;
12367;SDS011;6248;49.812;6.620;2023-01-10T13:45:45;12.53;;;2.97;;
12367;SDS011;6248;49.812;6.620;2023-01-10T13:48:25;15.00;;;3.43;;
12367;SDS011;6248;49.812;6.620;2023-01-10T13:51:06;13.27;;;3.10;;
12367;SDS011;6248;49.812;6.620;2023-01-10T13:53:43;14.20;;;3.73;;
12367;SDS011;6248;49.812;6.620;2023-01-10T13:56:28;13.07;;;3.10;;
12367;SDS011;6248;49.812;6.620;2023-01-10T13:58:55;12.90;;;3.00;;
12367;SDS011;6248;49.812;6.620;2023-01-10T14:01:40;16.93;;;3.23;;
12367;SDS011;6248;49.812;6.620;2023-01-10T14:04:26;15.37;;;2.90;;
12367;SDS011;6248;49.812;6.620;2023-01-10T14:06:56;13.20;;;3.57;;
12367;SDS011;6248;49.812;6.620;2023-01-10T14:12:17;18.13;;;3.53;;
12367;SDS011;6248;49.812;6.620;2023-01-10T14:14:49;14.40;;;3.17;;
12367;SDS011;6248;49.812;6.620;2023-01-10T14:17:19;15.63;;;2.83;;
12367;SDS011;6248;49.812;6.620;2023-01-10T14:19:48;15.57;;;2.80;;
12367;SDS011;6248;49.812;6.620;2023-01-10T14:22:24;15.40;;;3.50;;
12367;SDS011;6248;49.812;6.620;2023-01-10T14:24:53;11.37;;;2.73;;
12367;SDS011;6248;49.812;6.620;2023-01-10T14:27:20;16.50;;;3.27;;
12367;SDS011;6248;49.812;6.620;2023-01-10T14:29:48;11.20;;;2.60;;
12367;SDS011;6248;49.812;6.620;2023-01-10T14:32:18;12.00;;;2.87;;
12367;SDS011;6248;49.812;6.620;2023-01-10T14:34:49;14.17;;;2.73;;
12367;SDS011;6248;49.812;6.620;2023-01-10T14:37:19;16.10;;;3.30;;
12367;SDS011;6248;49.812;6.620;2023-01-10T14:39:50;12.20;;;2.90;;
12367;SDS011;6248;49.812;6.620;2023-01-10T14:42:20;12.93;;;3.13;;
12367;SDS011;6248;49.812;6.620;2023-01-10T14:44:48;14.43;;;3.30;;
12367;SDS011;6248;49.812;6.620;2023-01-10T14:47:25;12.60;;;3.67;;
12367;SDS011;6248;49.812;6.620;2023-01-10T14:49:53;14.30;;;3.43;;
12367;SDS011;6248;49.812;6.620;2023-01-10T14:52:21;14.50;;;2.73;;
12367;SDS011;6248;49.812;6.620;2023-01-10T14:54:54;14.40;;;3.70;;
12367;SDS011;6248;49.812;6.620;2023-01-10T14:57:27;11.17;;;2.97;;
12367;SDS011;6248;49.812;6.620;2023-01-10T15:00:00;12.17;;;3.10;;
12367;SDS011;6248;49.812;6.620;2023-01-10T15:02:29;14.80;;;3.00;;
12367;SDS011;6248;49.812;6.620;2023-01-10T15:04:57;13.03;;;3.20;;
12367;SDS011;6248;49.812;6.620;2023-01-10T15:07:24;12.33;;;2.93;;
12367;SDS011;6248;49.812;6.620;2023-01-10T15:09:54;12.77;;;3.10;;
12367;SDS011;6248;49.812;6.620;2023-01-10T15:12:22;13.40;;;3.50;;
12367;SDS011;6248;49.812;6.620;2023-01-10T15:14:53;15.03;;;3.50;;
12367;SDS011;6248;49.812;6.620;2023-01-10T15:17:21;13.37;;;3.20;;
12367;SDS011;6248;49.812;6.620;2023-01-10T15:19:48;13.53;;;2.93;;